createdAt,value
2019-02-03T00:01:30.358Z,23.93
2019-02-03T00:04:00.062Z,21.37
2019-02-03T00:06:28.152Z,25.50
2019-02-03T00:08:56.529Z,20.17
2019-02-03T00:11:24.594Z,23.90
2019-02-03T00:13:52.955Z,17.93
2019-02-03T00:16:21.237Z,21.70
2019-02-03T00:18:51.099Z,19.30
2019-02-03T00:21:19.665Z,23.80
2019-02-03T00:23:48.955Z,23.27
2019-02-03T00:26:17.916Z,22.40
2019-02-03T00:28:46.446Z,22.47
2019-02-03T00:31:14.999Z,18.87
2019-02-03T00:33:43.588Z,17.17
2019-02-03T00:36:12.782Z,14.97
2019-02-03T00:38:41.202Z,17.77
2019-02-03T00:41:09.858Z,22.03
2019-02-03T00:43:38.959Z,17.33
2019-02-03T00:46:06.746Z,21.37
2019-02-03T00:48:34.780Z,16.13
2019-02-03T00:51:04.322Z,19.50
2019-02-03T00:53:34.001Z,18.73
2019-02-03T00:56:02.300Z,18.40
2019-02-03T00:58:30.401Z,19.50
2019-02-03T01:00:59.604Z,22.30
2019-02-03T01:03:27.437Z,21.10
2019-02-03T01:05:56.424Z,22.03
2019-02-03T01:08:24.349Z,20.40
2019-02-03T01:10:52.390Z,19.27
2019-02-03T01:13:21.511Z,24.73
2019-02-03T01:15:52.752Z,24.90
2019-02-03T01:18:22.717Z,22.83
2019-02-03T01:20:51.185Z,27.30
2019-02-03T01:23:20.102Z,28.27
2019-02-03T01:25:47.758Z,25.77
2019-02-03T01:28:15.742Z,24.90
2019-02-03T01:30:44.082Z,21.33
2019-02-03T01:33:12.588Z,25.73
2019-02-03T01:35:41.063Z,24.57
2019-02-03T01:38:09.250Z,24.27
2019-02-03T01:40:36.949Z,22.10
2019-02-03T01:43:05.073Z,22.50
2019-02-03T01:45:33.763Z,25.13
2019-02-03T01:48:03.362Z,24.50
2019-02-03T01:50:33.701Z,24.27
2019-02-03T01:53:02.907Z,26.63
2019-02-03T01:55:31.696Z,27.73
2019-02-03T01:58:00.240Z,28.63
2019-02-03T02:00:29.464Z,27.23
2019-02-03T02:02:58.264Z,32.77
2019-02-03T02:05:26.475Z,26.57
2019-02-03T02:07:54.616Z,29.23
2019-02-03T02:10:25.043Z,29.00
2019-02-03T02:12:54.742Z,34.47
2019-02-03T02:15:25.317Z,30.10
2019-02-03T02:17:53.455Z,28.13
2019-02-03T02:20:23.734Z,38.83
2019-02-03T02:22:52.750Z,31.93
2019-02-03T02:25:21.223Z,36.33
2019-02-03T02:27:50.742Z,37.47
2019-02-03T02:30:23.694Z,35.20
2019-02-03T02:32:52.109Z,42.60
2019-02-03T02:35:36.004Z,44.30
2019-02-03T02:38:06.842Z,47.20
2019-02-03T02:40:34.570Z,47.83
2019-02-03T02:43:02.731Z,43.90
2019-02-03T02:45:31.128Z,43.73
2019-02-03T02:48:00.903Z,47.40
2019-02-03T02:50:31.632Z,47.30
2019-02-03T02:53:01.176Z,47.37
2019-02-03T02:55:32.537Z,45.20
2019-02-03T02:58:00.798Z,48.03
2019-02-03T03:00:28.451Z,46.20
2019-02-03T03:02:58.301Z,43.20
2019-02-03T03:05:27.158Z,50.00
2019-02-03T03:07:54.915Z,51.90
2019-02-03T03:10:22.918Z,51.30
2019-02-03T03:12:51.500Z,47.23
2019-02-03T03:15:20.025Z,50.07
2019-02-03T03:17:48.661Z,48.73
2019-02-03T03:20:18.931Z,52.40
2019-02-03T03:22:47.652Z,46.60
2019-02-03T03:25:17.302Z,51.20
2019-02-03T03:27:45.103Z,45.60
2019-02-03T03:30:16.546Z,49.10
2019-02-03T03:32:45.372Z,51.27
2019-02-03T03:35:13.030Z,51.70
2019-02-03T03:37:41.542Z,56.50
2019-02-03T03:40:09.140Z,50.37
2019-02-03T03:42:37.869Z,53.67
2019-02-03T03:45:06.611Z,53.33
2019-02-03T03:47:35.064Z,54.60
2019-02-03T03:50:04.034Z,51.00
2019-02-03T03:52:32.335Z,50.03
2019-02-03T03:54:59.964Z,53.83
2019-02-03T03:57:28.724Z,45.27
2019-02-03T03:59:56.891Z,51.50
2019-02-03T04:02:24.796Z,44.63
2019-02-03T04:04:53.074Z,50.97
2019-02-03T04:07:22.117Z,45.67
2019-02-03T04:09:50.038Z,45.63
2019-02-03T04:12:18.665Z,45.93
2019-02-03T04:14:48.127Z,41.53
2019-02-03T04:17:15.750Z,46.33
2019-02-03T04:19:43.577Z,45.10
2019-02-03T04:22:11.941Z,44.17
2019-02-03T04:24:39.791Z,40.67
2019-02-03T04:27:07.371Z,45.73
2019-02-03T04:29:34.687Z,47.20
2019-02-03T04:32:02.724Z,41.30
2019-02-03T04:34:31.125Z,40.30
2019-02-03T04:36:58.906Z,40.63
2019-02-03T04:39:27.612Z,42.97
2019-02-03T04:41:55.294Z,42.20
2019-02-03T04:44:22.999Z,40.23
2019-02-03T04:46:51.036Z,41.53
2019-02-03T04:49:18.704Z,36.23
2019-02-03T04:51:48.918Z,40.97
2019-02-03T04:54:17.623Z,40.90
2019-02-03T04:56:46.112Z,43.00
2019-02-03T04:59:14.452Z,38.17
2019-02-03T05:01:43.824Z,40.10
2019-02-03T05:04:11.833Z,40.60
2019-02-03T05:06:39.923Z,37.57
2019-02-03T05:09:11.279Z,42.57
2019-02-03T05:11:38.505Z,40.40
2019-02-03T05:14:07.006Z,49.87
2019-02-03T05:16:35.000Z,41.97
2019-02-03T05:19:03.318Z,37.30
2019-02-03T05:21:31.515Z,43.53
2019-02-03T05:24:00.008Z,44.13
2019-02-03T05:26:28.776Z,44.07
2019-02-03T05:28:56.911Z,40.20
2019-02-03T05:31:24.853Z,40.03
2019-02-03T05:33:53.210Z,32.53
2019-02-03T05:36:21.880Z,42.73
2019-02-03T05:38:55.125Z,38.10
2019-02-03T05:41:21.943Z,38.53
2019-02-03T05:43:50.318Z,33.90
2019-02-03T05:46:19.002Z,37.87
2019-02-03T05:48:47.403Z,33.40
2019-02-03T05:51:17.194Z,43.77
2019-02-03T05:53:44.961Z,35.60
2019-02-03T05:56:13.285Z,31.53
2019-02-03T05:58:42.548Z,31.47
2019-02-03T06:01:10.501Z,32.37
2019-02-03T06:03:39.606Z,32.30
2019-02-03T06:06:08.116Z,31.97
2019-02-03T06:08:36.262Z,29.40
2019-02-03T06:11:04.517Z,30.47
2019-02-03T06:13:32.481Z,27.87
2019-02-03T06:16:01.250Z,33.50
2019-02-03T06:18:29.575Z,32.23
2019-02-03T06:20:58.654Z,26.20
2019-02-03T06:23:26.933Z,23.33
2019-02-03T06:25:55.346Z,25.50
2019-02-03T06:28:23.719Z,30.97
2019-02-03T06:31:14.363Z,25.10
2019-02-03T06:33:44.190Z,26.87
2019-02-03T06:36:14.640Z,27.13
2019-02-03T06:38:43.305Z,29.50
2019-02-03T06:41:11.297Z,26.47
2019-02-03T06:43:39.677Z,29.77
2019-02-03T06:46:45.535Z,28.83
2019-02-03T06:49:29.818Z,27.37
2019-02-03T06:51:59.044Z,29.30
2019-02-03T06:54:27.159Z,28.27
2019-02-03T06:56:55.535Z,27.80
2019-02-03T06:59:24.422Z,30.00
2019-02-03T07:01:52.415Z,28.63
2019-02-03T07:04:21.147Z,27.87
2019-02-03T07:06:49.636Z,28.50
2019-02-03T07:09:20.614Z,31.70
2019-02-03T07:11:49.010Z,32.77
2019-02-03T07:14:20.572Z,29.00
2019-02-03T07:16:49.566Z,35.77
2019-02-03T07:19:18.744Z,32.83
2019-02-03T07:21:49.345Z,37.20
2019-02-03T07:24:19.011Z,37.57
2019-02-03T07:26:48.025Z,31.13
2019-02-03T07:29:16.581Z,34.63
2019-02-03T07:31:44.672Z,34.33
2019-02-03T07:34:12.647Z,33.10
2019-02-03T07:36:41.084Z,26.37
2019-02-03T07:39:10.517Z,27.23
2019-02-03T07:41:38.568Z,33.13
2019-02-03T07:44:07.263Z,27.83
2019-02-03T07:46:35.722Z,36.03
2019-02-03T07:49:05.771Z,33.07
2019-02-03T07:51:34.345Z,37.47
2019-02-03T07:54:08.583Z,31.37
2019-02-03T07:56:33.035Z,32.27
2019-02-03T07:59:01.561Z,33.93
2019-02-03T08:01:29.915Z,37.07
2019-02-03T08:04:00.132Z,34.60
2019-02-03T08:06:28.295Z,40.50
2019-02-03T08:08:56.199Z,39.20
2019-02-03T08:11:24.228Z,39.13
2019-02-03T08:13:52.308Z,37.50
2019-02-03T08:16:21.125Z,37.87
2019-02-03T08:18:49.182Z,42.37
2019-02-03T08:21:17.376Z,37.60
2019-02-03T08:23:45.743Z,38.40
2019-02-03T08:26:15.136Z,41.80
2019-02-03T08:28:43.800Z,40.60
2019-02-03T08:31:12.149Z,36.73
2019-02-03T08:33:41.941Z,40.00
2019-02-03T08:36:11.553Z,38.57
2019-02-03T08:38:40.112Z,45.50
2019-02-03T08:41:08.808Z,41.60
2019-02-03T08:43:37.168Z,42.70
2019-02-03T08:46:05.675Z,43.87
2019-02-03T08:48:33.729Z,41.27
2019-02-03T08:51:04.490Z,42.80
2019-02-03T08:53:32.257Z,42.67
2019-02-03T08:56:00.636Z,52.77
2019-02-03T08:58:30.232Z,45.77
2019-02-03T09:01:01.334Z,41.20
2019-02-03T09:03:29.340Z,39.70
2019-02-03T09:05:57.798Z,39.10
2019-02-03T09:08:27.141Z,47.43
2019-02-03T09:10:55.688Z,48.73
2019-02-03T09:13:25.508Z,42.00
2019-02-03T09:15:54.003Z,40.77
2019-02-03T09:18:22.495Z,44.63
2019-02-03T09:20:50.884Z,42.03
2019-02-03T09:23:18.181Z,42.93
2019-02-03T09:25:46.896Z,45.23
2019-02-03T09:28:15.360Z,40.60
2019-02-03T09:30:44.486Z,38.43
2019-02-03T09:33:13.142Z,37.23
2019-02-03T09:35:41.223Z,37.97
2019-02-03T09:38:09.426Z,40.67
2019-02-03T09:40:37.564Z,37.90
2019-02-03T09:43:05.762Z,38.17
2019-02-03T09:45:35.184Z,44.77
2019-02-03T09:48:04.342Z,36.00
2019-02-03T09:50:32.748Z,38.60
2019-02-03T09:53:04.136Z,44.40
2019-02-03T09:55:33.191Z,39.87
2019-02-03T09:58:03.062Z,35.20
2019-02-03T10:00:32.895Z,43.67
2019-02-03T10:03:03.432Z,48.07
2019-02-03T10:05:31.507Z,40.47
2019-02-03T10:07:59.834Z,39.37
2019-02-03T10:10:53.212Z,41.17
2019-02-03T10:13:21.722Z,38.20
2019-02-03T10:15:50.056Z,41.27
2019-02-03T10:18:18.255Z,42.03
2019-02-03T10:20:54.803Z,43.17
2019-02-03T10:23:23.095Z,48.77
2019-02-03T10:25:51.145Z,46.80
2019-02-03T10:28:19.594Z,42.93
2019-02-03T10:30:47.955Z,50.87
2019-02-03T10:33:15.980Z,47.83
2019-02-03T10:35:43.605Z,44.43
2019-02-03T10:38:13.635Z,47.30
2019-02-03T10:40:42.320Z,45.80
2019-02-03T10:43:10.936Z,42.90
2019-02-03T10:45:39.163Z,46.70
2019-02-03T10:48:09.346Z,49.27
2019-02-03T10:50:38.572Z,47.73
2019-02-03T10:53:08.416Z,49.73
2019-02-03T10:55:36.396Z,47.53
2019-02-03T10:58:06.115Z,44.07
2019-02-03T11:00:35.092Z,45.53
2019-02-03T11:03:03.539Z,47.97
2019-02-03T11:05:52.131Z,54.43
2019-02-03T11:08:20.687Z,45.00
2019-02-03T11:10:48.668Z,42.73
2019-02-03T11:13:16.536Z,42.47
2019-02-03T11:15:45.314Z,55.47
2019-02-03T11:18:14.783Z,49.20
2019-02-03T11:20:43.272Z,41.47
2019-02-03T11:23:11.381Z,44.83
2019-02-03T11:25:39.971Z,40.00
2019-02-03T11:28:08.153Z,46.90
2019-02-03T11:30:39.172Z,49.70
2019-02-03T11:33:09.462Z,41.47
2019-02-03T11:35:37.454Z,43.50
2019-02-03T11:38:05.793Z,46.80
2019-02-03T11:40:34.933Z,47.10
2019-02-03T11:43:03.428Z,43.53
2019-02-03T11:45:38.987Z,43.10
2019-02-03T11:48:09.772Z,38.20
2019-02-03T11:50:39.243Z,32.93
2019-02-03T11:53:09.987Z,39.00
2019-02-03T11:55:38.988Z,34.60
2019-02-03T11:58:07.656Z,39.63
2019-02-03T12:00:36.568Z,40.90
2019-02-03T12:03:05.804Z,37.20
2019-02-03T12:05:34.345Z,35.30
2019-02-03T12:08:04.360Z,29.80
2019-02-03T12:10:32.217Z,31.33
2019-02-03T12:13:05.203Z,34.37
2019-02-03T12:15:34.232Z,28.47
2019-02-03T12:18:02.271Z,35.10
2019-02-03T12:20:32.095Z,29.80
2019-02-03T12:23:00.487Z,33.50
2019-02-03T12:25:30.291Z,26.17
2019-02-03T12:27:58.884Z,29.13
2019-02-03T12:30:28.890Z,28.53
2019-02-03T12:32:57.078Z,25.90
2019-02-03T12:35:31.665Z,28.87
2019-02-03T12:38:00.016Z,28.40
2019-02-03T12:40:34.265Z,30.50
2019-02-03T12:43:03.615Z,27.77
2019-02-03T12:45:32.159Z,25.77
2019-02-03T12:48:00.435Z,25.10
2019-02-03T12:50:28.506Z,23.10
2019-02-03T12:53:00.360Z,20.30
2019-02-03T12:55:29.227Z,26.03
2019-02-03T12:57:57.747Z,26.60
2019-02-03T13:00:29.131Z,21.70
2019-02-03T13:02:58.634Z,21.87
2019-02-03T13:05:29.499Z,26.57
2019-02-03T13:07:57.687Z,21.40
2019-02-03T13:10:27.311Z,19.87
2019-02-03T13:12:56.295Z,21.60
2019-02-03T13:15:39.035Z,23.73
2019-02-03T13:18:07.302Z,22.00
2019-02-03T13:20:36.102Z,23.60
2019-02-03T13:23:04.951Z,21.17
2019-02-03T13:25:34.474Z,23.93
2019-02-03T13:28:02.453Z,17.50
2019-02-03T13:30:35.015Z,19.30
2019-02-03T13:33:04.364Z,19.57
2019-02-03T13:35:32.989Z,13.37
2019-02-03T13:38:01.218Z,18.23
2019-02-03T13:40:29.090Z,18.03
2019-02-03T13:42:58.140Z,14.23
2019-02-03T13:45:27.239Z,18.40
2019-02-03T13:47:56.464Z,11.20
2019-02-03T13:50:24.863Z,12.53
2019-02-03T13:52:53.860Z,12.63
2019-02-03T13:55:23.112Z,11.90
2019-02-03T13:57:51.401Z,13.50
2019-02-03T14:00:22.495Z,15.50
2019-02-03T14:02:53.913Z,19.97
2019-02-03T14:05:22.154Z,12.20
2019-02-03T14:07:51.825Z,15.83
2019-02-03T14:10:23.186Z,15.70
2019-02-03T14:12:55.007Z,15.80
2019-02-03T14:15:22.223Z,8.70
2019-02-03T14:17:51.750Z,11.80
2019-02-03T14:20:21.985Z,12.53
2019-02-03T14:22:50.643Z,7.90
2019-02-03T14:25:20.508Z,10.77
2019-02-03T14:27:49.971Z,11.17
2019-02-03T14:30:21.876Z,11.07
2019-02-03T14:32:49.440Z,8.70
2019-02-03T14:35:18.501Z,9.47
2019-02-03T14:37:48.438Z,8.73
2019-02-03T14:40:17.579Z,10.50
2019-02-03T14:42:48.396Z,8.70
2019-02-03T14:45:17.703Z,9.37
2019-02-03T14:47:46.398Z,17.53
2019-02-03T14:50:17.362Z,10.90
2019-02-03T14:52:45.582Z,10.63
2019-02-03T14:55:15.605Z,15.23
2019-02-03T14:57:44.200Z,9.20
2019-02-03T15:00:27.622Z,11.30
2019-02-03T15:02:57.188Z,9.73
2019-02-03T15:05:26.180Z,10.07
2019-02-03T15:07:54.771Z,12.97
2019-02-03T15:10:22.602Z,9.23
2019-02-03T15:12:50.801Z,7.13
2019-02-03T15:15:22.102Z,22.60
2019-02-03T15:17:50.527Z,11.83
2019-02-03T15:20:20.159Z,11.93
2019-02-03T15:22:49.002Z,9.37
2019-02-03T15:25:17.411Z,7.90
2019-02-03T15:27:47.566Z,5.97
2019-02-03T15:30:23.162Z,7.13
2019-02-03T15:32:50.838Z,6.87
2019-02-03T15:35:18.914Z,5.47
2019-02-03T15:37:46.495Z,8.33
2019-02-03T15:40:15.734Z,6.80
2019-02-03T15:42:45.287Z,7.67
2019-02-03T15:45:14.898Z,11.80
2019-02-03T15:47:44.557Z,8.63
2019-02-03T15:50:15.742Z,7.13
2019-02-03T15:52:44.746Z,10.33
2019-02-03T15:55:17.835Z,7.87
2019-02-03T15:57:47.011Z,11.37
2019-02-03T16:00:21.214Z,5.63
2019-02-03T16:02:50.366Z,14.20
2019-02-03T16:05:19.769Z,6.70
2019-02-03T16:07:49.381Z,7.00
2019-02-03T16:10:19.789Z,8.90
2019-02-03T16:12:48.872Z,5.87
2019-02-03T16:15:18.772Z,9.30
2019-02-03T16:17:47.939Z,15.20
2019-02-03T16:20:17.903Z,10.80
2019-02-03T16:22:46.967Z,7.33
2019-02-03T16:25:15.991Z,10.43
2019-02-03T16:27:44.555Z,23.00
2019-02-03T16:30:15.365Z,13.20
2019-02-03T16:32:44.323Z,19.00
2019-02-03T16:35:15.296Z,11.77
2019-02-03T16:37:43.853Z,12.00
2019-02-03T16:40:14.866Z,6.80
2019-02-03T16:42:42.980Z,9.17
2019-02-03T16:45:11.145Z,10.97
2019-02-03T16:47:39.819Z,10.13
2019-02-03T16:50:10.637Z,9.03
2019-02-03T16:52:39.136Z,14.33
2019-02-03T16:55:08.695Z,12.13
2019-02-03T16:57:36.863Z,15.73
2019-02-03T17:00:08.237Z,8.93
2019-02-03T17:02:38.595Z,8.30
2019-02-03T17:05:08.976Z,17.60
2019-02-03T17:07:38.163Z,9.10
2019-02-03T17:10:07.220Z,6.53
2019-02-03T17:12:36.196Z,8.53
2019-02-03T17:15:06.900Z,13.03
2019-02-03T17:17:35.769Z,8.67
2019-02-03T17:20:04.354Z,10.63
2019-02-03T17:22:32.508Z,8.10
2019-02-03T17:25:00.333Z,11.27
2019-02-03T17:27:29.827Z,9.13
2019-02-03T17:29:59.194Z,9.07
2019-02-03T17:32:27.761Z,15.30
2019-02-03T17:34:58.347Z,8.10
2019-02-03T17:37:26.957Z,8.23
2019-02-03T17:39:54.355Z,15.63
2019-02-03T17:42:27.326Z,9.10
2019-02-03T17:44:56.203Z,11.50
2019-02-03T17:47:26.743Z,11.10
2019-02-03T17:49:56.065Z,8.33
2019-02-03T17:52:24.712Z,8.67
2019-02-03T17:54:53.811Z,14.87
2019-02-03T17:57:26.048Z,12.47
2019-02-03T17:59:54.981Z,7.77
2019-02-03T18:02:24.625Z,10.20
2019-02-03T18:04:53.991Z,18.43
2019-02-03T18:07:22.676Z,8.47
2019-02-03T18:09:51.258Z,7.80
2019-02-03T18:12:19.855Z,5.77
2019-02-03T18:14:51.611Z,7.17
2019-02-03T18:17:19.811Z,11.60
2019-02-03T18:19:48.371Z,10.00
2019-02-03T18:22:17.228Z,8.30
2019-02-03T18:24:45.723Z,7.03
2019-02-03T18:27:16.264Z,8.50
2019-02-03T18:29:46.009Z,9.70
2019-02-03T18:32:14.810Z,10.60
2019-02-03T18:34:45.865Z,10.60
2019-02-03T18:37:14.027Z,7.80
2019-02-03T18:39:42.052Z,11.20
2019-02-03T18:42:09.958Z,10.70
2019-02-03T18:44:37.991Z,6.03
2019-02-03T18:47:06.819Z,13.87
2019-02-03T18:49:35.194Z,9.93
2019-02-03T18:52:03.129Z,9.80
2019-02-03T18:54:31.943Z,9.17
2019-02-03T18:57:00.684Z,10.43
2019-02-03T18:59:29.701Z,6.43
2019-02-03T19:01:58.619Z,7.80
2019-02-03T19:04:28.006Z,9.90
2019-02-03T19:06:58.482Z,7.50
2019-02-03T19:09:26.803Z,8.77
2019-02-03T19:11:55.872Z,9.57
2019-02-03T19:14:23.283Z,12.03
2019-02-03T19:16:51.545Z,9.00
2019-02-03T19:19:20.401Z,6.03
2019-02-03T19:21:48.915Z,6.57
2019-02-03T19:24:17.150Z,10.30
2019-02-03T19:26:45.472Z,6.07
2019-02-03T19:29:13.955Z,8.87
2019-02-03T19:31:42.858Z,7.53
2019-02-03T19:34:11.543Z,10.10
2019-02-03T19:36:40.618Z,9.23
2019-02-03T19:39:10.590Z,13.97
2019-02-03T19:41:40.279Z,16.33
2019-02-03T19:44:08.987Z,16.17
2019-02-03T19:46:38.224Z,12.30
2019-02-03T19:49:07.442Z,7.60
2019-02-03T19:51:36.163Z,9.50
2019-02-03T19:54:03.899Z,8.00
2019-02-03T19:56:32.063Z,8.03
2019-02-03T19:59:01.540Z,18.73
2019-02-03T20:01:30.142Z,8.30
2019-02-03T20:04:00.076Z,10.57
2019-02-03T20:06:28.449Z,9.10
2019-02-03T20:08:57.235Z,6.80
2019-02-03T20:11:25.092Z,15.13
2019-02-03T20:13:53.360Z,5.53
2019-02-03T20:16:21.452Z,8.83
2019-02-03T20:18:49.357Z,14.50
2019-02-03T20:21:18.299Z,9.60
2019-02-03T20:23:47.044Z,10.87
2019-02-03T20:26:24.069Z,9.40
2019-02-03T20:28:53.073Z,11.63
2019-02-03T20:31:21.291Z,9.03
2019-02-03T20:33:49.862Z,11.20
2019-02-03T20:36:21.124Z,10.37
2019-02-03T20:38:50.704Z,9.00
2019-02-03T20:41:20.698Z,12.00
2019-02-03T20:43:53.572Z,15.27
2019-02-03T20:46:28.100Z,14.17
2019-02-03T20:48:57.727Z,8.50
2019-02-03T20:51:27.013Z,14.00
2019-02-03T20:53:57.299Z,12.87
2019-02-03T20:56:26.757Z,23.80
2019-02-03T20:58:58.309Z,23.23
2019-02-03T21:01:28.246Z,12.67
2019-02-03T21:04:05.407Z,11.60
2019-02-03T21:06:38.308Z,9.77
2019-02-03T21:09:08.821Z,13.70
2019-02-03T21:11:41.281Z,11.17
2019-02-03T21:14:19.381Z,14.50
2019-02-03T21:16:50.406Z,14.23
2019-02-03T21:19:18.374Z,12.33
2019-02-03T21:21:53.610Z,15.30
2019-02-03T21:24:28.146Z,20.30
2019-02-03T21:27:03.462Z,13.53
2019-02-03T21:29:37.324Z,22.30
2019-02-03T21:32:09.667Z,10.80
2019-02-03T21:34:41.742Z,8.83
2019-02-03T21:37:14.101Z,15.80
2019-02-03T21:39:47.292Z,12.30
2019-02-03T21:42:17.637Z,12.83
2019-02-03T21:44:46.259Z,13.90
2019-02-03T21:47:14.748Z,16.93
2019-02-03T21:49:46.613Z,11.67
2019-02-03T21:52:17.129Z,10.03
2019-02-03T21:54:47.468Z,8.48
2019-02-03T21:57:19.928Z,17.43
2019-02-03T22:00:11.624Z,10.50
2019-02-03T22:02:40.397Z,10.77
2019-02-03T22:05:08.579Z,11.20
2019-02-03T22:07:37.056Z,9.30
2019-02-03T22:10:09.332Z,12.07
2019-02-03T22:12:44.824Z,17.10
2019-02-03T22:15:16.263Z,17.70
2019-02-03T22:17:44.437Z,13.63
2019-02-03T22:20:19.863Z,17.32
2019-02-03T22:22:51.148Z,19.35
2019-02-03T22:25:21.043Z,9.07
2019-02-03T22:27:50.813Z,21.67
2019-02-03T22:30:28.283Z,8.75
2019-02-03T22:33:03.674Z,10.80
2019-02-03T22:35:33.151Z,13.43
2019-02-03T22:38:03.552Z,9.90
2019-02-03T22:40:34.340Z,10.00
2019-02-03T22:43:06.005Z,10.70
2019-02-03T22:45:34.064Z,11.37
2019-02-03T22:48:02.587Z,16.87
2019-02-03T22:50:31.380Z,12.43
2019-02-03T22:53:00.440Z,16.03
2019-02-03T22:55:29.024Z,11.15
2019-02-03T22:57:57.616Z,17.83
2019-02-03T23:01:24.760Z,17.57
2019-02-03T23:04:16.912Z,20.03
2019-02-03T23:06:44.572Z,14.53
2019-02-03T23:09:26.362Z,20.23
2019-02-03T23:11:56.389Z,18.20
2019-02-03T23:14:25.050Z,20.97
2019-02-03T23:16:54.063Z,14.50
2019-02-03T23:19:22.460Z,12.82
2019-02-03T23:21:50.756Z,11.60
2019-02-03T23:24:19.204Z,8.40
2019-02-03T23:26:46.974Z,9.57
2019-02-03T23:29:15.068Z,12.00
2019-02-03T23:31:43.668Z,12.90
2019-02-03T23:34:13.029Z,15.40
2019-02-03T23:36:41.506Z,14.45
2019-02-03T23:39:12.475Z,11.68
2019-02-03T23:41:40.522Z,19.97
2019-02-03T23:44:08.699Z,12.93
2019-02-03T23:46:37.823Z,11.73
2019-02-03T23:49:06.891Z,13.85
2019-02-03T23:51:35.441Z,11.83
2019-02-03T23:54:05.196Z,11.93
2019-02-03T23:56:34.173Z,12.43
2019-02-03T23:59:02.134Z,12.43
